Time;durP1;ratioP1;P1;durP2;ratioP2;P2;SDS_P1;SDS_P2;PMS_P1;PMS_P2;Temp;Humidity;BMP_temperature;BMP_pressure;BME280_temperature;BME280_humidity;BME280_pressure;Samples;Min_cycle;Max_cycle;Signal;HPM_P1;HPM_P2
2023/05/30 00:01:29;;;;;;;;;;;17.20;68.10;;;-151.14;100.00;62537.16;4956497;29;19927;-84
2023/05/30 00:03:57;;;;;;;;;;;17.20;68.10;;;-151.14;100.00;62537.16;4956575;29;19923;-83
2023/05/30 00:06:25;;;;;;;;;;;17.20;68.00;;;-151.14;100.00;62537.16;4956551;29;19922;-83
2023/05/30 00:08:55;;;;;;;;;;;17.20;68.00;;;-151.14;100.00;62537.16;4956376;29;19936;-83
2023/05/30 00:11:24;;;;;;;;;;;17.10;68.90;;;-151.14;100.00;62537.16;4940554;29;19937;-83
2023/05/30 00:13:52;;;;;;;;;;;17.20;68.20;;;-151.14;100.00;62537.16;4956442;29;19944;-83
2023/05/30 00:16:20;;;;;;;;;;;17.10;68.30;;;-151.14;100.00;62537.16;4956586;29;19923;-83
2023/05/30 00:18:48;;;;;;;;;;;17.10;68.10;;;-151.14;100.00;62537.16;4955716;29;19938;-83
2023/05/30 00:21:17;;;;;;;;;;;17.10;68.00;;;-151.14;100.00;62537.16;4940576;29;19926;-83
2023/05/30 00:23:45;;;;;;;;;;;17.10;67.90;;;-151.14;100.00;62537.16;4940580;29;20207;-83
2023/05/30 00:26:15;;;;;;;;;;;17.10;67.70;;;-151.14;100.00;62537.16;4956639;29;19923;-83
2023/05/30 00:28:50;;;;;;;;;;;17.10;67.60;;;-151.14;100.00;62537.16;4953833;29;19929;-83
2023/05/30 00:31:18;;;;;;;;;;;17.10;67.50;;;-151.14;100.00;62537.16;4938405;29;19929;-83
2023/05/30 00:33:46;;;;;;;;;;;17.10;67.50;;;-151.14;100.00;62537.16;4938455;29;19929;-84
2023/05/30 00:36:14;;;;;;;;;;;17.10;67.40;;;-151.14;100.00;62537.16;4954273;29;19922;-84
2023/05/30 00:38:42;;;;;;;;;;;17.10;67.50;;;-151.14;100.00;62537.16;4953747;29;20122;-84
2023/05/30 00:41:10;;;;;;;;;;;17.00;67.40;;;-151.14;100.00;62537.16;4954212;29;19945;-83
2023/05/30 00:43:39;;;;;;;;;;;17.10;67.60;;;-151.14;100.00;62537.16;4954219;29;19944;-83
2023/05/30 00:46:07;;;;;;;;;;;17.00;67.50;;;-151.14;100.00;62537.16;4954096;29;19922;-84
2023/05/30 00:48:36;;;;;;;;;;;17.00;67.40;;;-151.14;100.00;62537.16;4937657;29;19923;-84
2023/05/30 00:51:06;;;;;;;;;;;17.00;67.60;;;-151.14;100.00;62537.16;4937813;29;19926;-83
2023/05/30 00:53:35;;;;;;;;;;;17.00;67.60;;;-151.14;100.00;62537.16;4954278;29;19922;-83
2023/05/30 00:56:03;;;;;;;;;;;17.00;67.50;;;-151.14;100.00;62537.16;4953937;29;19929;-83
2023/05/30 00:58:31;;;;;;;;;;;17.00;67.70;;;-151.14;100.00;62537.16;4953387;29;19923;-84
2023/05/30 01:01:01;;;;;;;;;;;17.00;67.60;;;-151.14;100.00;62537.16;4937809;29;20118;-83
2023/05/30 01:03:33;;;;;;;;;;;17.00;67.40;;;-151.14;100.00;62537.16;4938161;29;19929;-83
2023/05/30 01:06:03;;;;;;;;;;;17.00;67.30;;;-151.14;100.00;62537.16;4937828;29;19929;-84
2023/05/30 01:08:31;;;;;;;;;;;17.00;67.60;;;-151.14;100.00;62537.16;4954472;29;19926;-84
2023/05/30 01:11:04;;;;;;;;;;;17.00;67.60;;;-151.14;100.00;62537.16;4953731;29;19923;-83
2023/05/30 01:13:36;;;;;;;;;;;17.00;67.50;;;-151.14;100.00;62537.16;4938162;29;20374;-84
2023/05/30 01:16:09;;;;;;;;;;;16.90;67.50;;;-151.14;100.00;62537.16;4937850;29;19928;-84
2023/05/30 01:18:39;;;;;;;;;;;17.00;67.50;;;-151.14;100.00;62537.16;4934086;29;20100;-83
2023/05/30 01:21:10;;;;;;;;;;;16.90;67.70;;;-151.14;100.00;62537.16;4934410;29;19923;-83
2023/05/30 01:23:46;;;;;;;;;;;17.00;67.70;;;-151.14;100.00;62537.16;4934573;29;19923;-83
2023/05/30 01:26:24;;;;;;;;;;;17.00;67.60;;;-151.14;100.00;62537.16;4918650;29;19923;-83
2023/05/30 01:28:54;;;;;;;;;;;16.90;67.60;;;-151.14;100.00;62537.16;4934087;29;20211;-83
2023/05/30 01:31:22;;;;;;;;;;;16.90;67.20;;;-151.14;100.00;62537.16;4935446;29;19930;-83
2023/05/30 01:33:50;;;;;;;;;;;16.90;67.20;;;-151.14;100.00;62537.16;4934442;29;19929;-83
2023/05/30 01:36:22;;;;;;;;;;;16.90;67.10;;;-151.14;100.00;62537.16;4918594;29;20218;-83
2023/05/30 01:38:50;;;;;;;;;;;16.90;67.00;;;-151.14;100.00;62537.16;4933679;29;19923;-84
2023/05/30 01:41:21;;;;;;;;;;;16.90;67.00;;;-151.14;100.00;62537.16;4933957;29;19922;-83
2023/05/30 01:43:51;;;;;;;;;;;16.90;67.10;;;-151.14;100.00;62537.16;4918536;29;19923;-83
2023/05/30 01:46:26;;;;;;;;;;;16.80;67.00;;;-151.14;100.00;62537.16;4918222;29;19923;-83
2023/05/30 01:48:59;;;;;;;;;;;16.80;67.10;;;-151.14;100.00;62537.16;4933698;29;19955;-83
2023/05/30 01:51:30;;;;;;;;;;;16.80;67.20;;;-151.14;100.00;62537.16;4918165;29;19929;-82
2023/05/30 01:54:00;;;;;;;;;;;16.80;67.40;;;-151.14;100.00;62537.16;4918324;29;19929;-83
2023/05/30 01:56:29;;;;;;;;;;;16.80;67.40;;;-151.14;100.00;62537.16;4934004;29;19923;-83
2023/05/30 01:58:57;;;;;;;;;;;16.80;67.60;;;-151.14;100.00;62537.16;4933537;29;19930;-83
2023/05/30 02:01:28;;;;;;;;;;;16.80;67.40;;;-151.14;100.00;62537.16;4933958;29;19930;-83
2023/05/30 02:03:56;;;;;;;;;;;16.80;67.20;;;-151.14;100.00;62537.16;4934019;29;19937;-83
2023/05/30 02:06:24;;;;;;;;;;;16.80;67.40;;;-151.14;100.00;62537.16;4935014;29;19983;-83
2023/05/30 02:08:53;;;;;;;;;;;16.80;67.30;;;-151.14;100.00;62537.16;4917554;29;19930;-83
2023/05/30 02:11:21;;;;;;;;;;;16.80;67.40;;;-151.14;100.00;62537.16;4933274;29;19923;-83
2023/05/30 02:13:49;;;;;;;;;;;16.80;67.40;;;-151.14;100.00;62537.16;4917087;29;19945;-83
2023/05/30 02:16:18;;;;;;;;;;;16.80;67.40;;;-151.14;100.00;62537.16;4933986;29;19923;-83
2023/05/30 02:18:48;;;;;;;;;;;16.80;67.50;;;-151.14;100.00;62537.16;4917309;29;19923;-83
2023/05/30 02:21:15;;;;;;;;;;;16.80;67.40;;;-151.14;100.00;62537.16;4917802;29;19922;-83
2023/05/30 02:23:44;;;;;;;;;;;16.80;67.20;;;-151.14;100.00;62537.16;4933652;29;19987;-83
2023/05/30 02:26:12;;;;;;;;;;;16.80;67.10;;;-151.14;100.00;62537.16;4917848;29;19923;-83
2023/05/30 02:28:40;;;;;;;;;;;16.80;67.00;;;-151.14;100.00;62537.16;4933036;29;19927;-83
2023/05/30 02:31:08;;;;;;;;;;;16.80;66.90;;;-151.14;100.00;62537.16;4917710;29;19945;-83
2023/05/30 02:33:36;;;;;;;;;;;16.80;67.00;;;-151.14;100.00;62537.16;4933508;29;19945;-83
2023/05/30 02:36:08;;;;;;;;;;;16.70;67.10;;;-151.14;100.00;62537.16;4949541;29;19923;-83
2023/05/30 02:38:36;;;;;;;;;;;16.80;67.00;;;-151.14;100.00;62537.16;4932890;29;19923;-83
2023/05/30 02:41:04;;;;;;;;;;;16.70;66.90;;;-151.14;100.00;62537.16;4933320;29;19922;-83
2023/05/30 02:43:32;;;;;;;;;;;16.70;66.90;;;-151.14;100.00;62537.16;4933575;29;19923;-84
2023/05/30 02:46:04;;;;;;;;;;;16.70;66.80;;;-151.14;100.00;62537.16;4933560;29;19923;-84
2023/05/30 02:48:32;;;;;;;;;;;16.70;67.00;;;-151.14;100.00;62537.16;4917267;29;19937;-84
2023/05/30 02:51:01;;;;;;;;;;;16.70;67.20;;;-151.14;100.00;62537.16;4935070;29;19923;-81
2023/05/30 02:53:30;;;;;;;;;;;16.70;67.30;;;-151.14;100.00;62537.16;4947264;29;19922;-82
2023/05/30 02:56:00;;;;;;;;;;;16.70;67.10;;;-151.14;100.00;62537.16;4974558;28;20122;-82
2023/05/30 02:58:46;;;;;;;;;;;16.70;67.10;;;-151.14;100.00;62537.16;4956865;29;19926;-82
2023/05/30 03:01:34;;;;;;;;;;;16.70;67.10;;;-151.14;100.00;62537.16;4957581;28;20034;-82
2023/05/30 03:04:03;;;;;;;;;;;16.70;67.00;;;-151.14;100.00;62537.16;4958200;29;19922;-82
2023/05/30 03:06:38;;;;;;;;;;;16.70;67.00;;;-151.14;100.00;62537.16;4942300;29;19929;-82
2023/05/30 03:09:21;;;;;;;;;;;16.70;67.00;;;-151.14;100.00;62537.16;4957499;29;20236;-83
2023/05/30 03:11:50;;;;;;;;;;;16.70;67.90;;;-151.14;100.00;62537.16;4973770;28;19930;-83
2023/05/30 03:14:18;;;;;;;;;;;16.70;67.10;;;-151.14;100.00;62537.16;4942374;29;20110;-83
2023/05/30 03:16:46;;;;;;;;;;;16.70;67.10;;;-151.14;100.00;62537.16;4973719;28;19922;-83
2023/05/30 03:19:17;;;;;;;;;;;16.60;67.00;;;-151.14;100.00;62537.16;4957787;29;19922;-83
2023/05/30 03:21:45;;;;;;;;;;;16.60;66.90;;;-151.14;100.00;62537.16;4941962;29;19928;-82
2023/05/30 03:24:15;;;;;;;;;;;16.60;67.10;;;-151.14;100.00;62537.16;4957780;29;19929;-83
2023/05/30 03:26:47;;;;;;;;;;;16.60;67.10;;;-151.14;100.00;62537.16;4957876;29;19922;-83
2023/05/30 03:29:18;;;;;;;;;;;16.60;67.10;;;-151.14;100.00;62537.16;4941119;29;20002;-83
2023/05/30 03:31:46;;;;;;;;;;;16.70;67.20;;;-151.14;100.00;62537.16;4941591;29;20244;-82
2023/05/30 03:34:14;;;;;;;;;;;16.70;67.30;;;-151.14;100.00;62537.16;4941172;29;20134;-83
2023/05/30 03:36:45;;;;;;;;;;;16.70;67.30;;;-151.14;100.00;62537.16;4957877;29;19923;-83
2023/05/30 03:39:13;;;;;;;;;;;16.70;67.40;;;-151.14;100.00;62537.16;4956334;29;19922;-83
2023/05/30 03:41:41;;;;;;;;;;;16.70;67.40;;;-151.14;100.00;62537.16;4957483;29;20253;-82
2023/05/30 03:44:10;;;;;;;;;;;16.70;67.30;;;-151.14;100.00;62537.16;4941727;29;19929;-82
2023/05/30 03:46:41;;;;;;;;;;;16.70;67.20;;;-151.14;100.00;62537.16;4942079;29;19922;-82
2023/05/30 03:49:09;;;;;;;;;;;16.80;67.20;;;-151.14;100.00;62537.16;4940701;29;19926;-82
2023/05/30 03:51:37;;;;;;;;;;;16.70;67.20;;;-151.14;100.00;62537.16;4941473;29;19922;-82
2023/05/30 03:54:05;;;;;;;;;;;16.80;67.10;;;-151.14;100.00;62537.16;4941826;29;19922;-82
2023/05/30 03:56:33;;;;;;;;;;;16.80;66.90;;;-151.14;100.00;62537.16;4941118;29;19929;-83
2023/05/30 03:59:01;;;;;;;;;;;16.70;67.10;;;-151.14;100.00;62537.16;4956904;29;19922;-83
2023/05/30 04:01:33;;;;;;;;;;;16.70;66.90;;;-151.14;100.00;62537.16;4957621;29;19928;-82
2023/05/30 04:04:01;;;;;;;;;;;16.70;67.30;;;-151.14;100.00;62537.16;4940782;29;19922;-83
2023/05/30 04:06:29;;;;;;;;;;;16.70;66.60;;;-151.14;100.00;62537.16;4941352;29;20231;-83
2023/05/30 04:09:01;;;;;;;;;;;16.70;66.90;;;-151.14;100.00;62537.16;4941057;29;19922;-83
2023/05/30 04:11:29;;;;;;;;;;;16.70;66.80;;;-151.14;100.00;62537.16;4958045;29;20218;-83
2023/05/30 04:13:57;;;;;;;;;;;16.70;67.40;;;-151.14;100.00;62537.16;4942254;29;19938;-83
2023/05/30 04:16:25;;;;;;;;;;;16.70;67.50;;;-151.14;100.00;62537.16;4958202;29;19929;-83
2023/05/30 04:18:54;;;;;;;;;;;16.70;67.60;;;-151.14;100.00;62537.16;4941324;29;19928;-83
2023/05/30 04:21:23;;;;;;;;;;;16.70;67.50;;;-151.14;100.00;62537.16;4957571;29;19945;-83
2023/05/30 04:23:51;;;;;;;;;;;16.70;67.50;;;-151.14;100.00;62537.16;4957587;29;19922;-82
2023/05/30 04:26:20;;;;;;;;;;;16.70;67.30;;;-151.14;100.00;62537.16;4957719;29;20232;-83
2023/05/30 04:28:50;;;;;;;;;;;16.80;66.70;;;-151.14;100.00;62537.16;4941040;29;19922;-83
2023/05/30 04:31:19;;;;;;;;;;;16.80;67.10;;;-151.14;100.00;62537.16;4958225;28;19922;-83
2023/05/30 04:33:48;;;;;;;;;;;16.80;66.80;;;-151.14;100.00;62537.16;4958149;29;19929;-83
2023/05/30 04:36:18;;;;;;;;;;;16.70;66.40;;;-151.14;100.00;62537.16;4941993;29;19922;-83
2023/05/30 04:38:47;;;;;;;;;;;16.70;66.40;;;-151.14;100.00;62537.16;4941631;29;19928;-83
2023/05/30 04:41:18;;;;;;;;;;;16.70;67.00;;;-151.14;100.00;62537.16;4941277;29;19922;-83
2023/05/30 04:43:52;;;;;;;;;;;16.80;67.10;;;-151.14;100.00;62537.16;4942012;29;19922;-82
2023/05/30 04:46:21;;;;;;;;;;;16.80;66.60;;;-151.14;100.00;62537.16;4958071;29;20133;-83
2023/05/30 04:48:52;;;;;;;;;;;16.80;66.40;;;-151.14;100.00;62537.16;4957166;29;20204;-83
2023/05/30 04:51:21;;;;;;;;;;;16.80;66.80;;;-151.14;100.00;62537.16;4957713;29;19929;-83
2023/05/30 04:53:49;;;;;;;;;;;16.90;67.20;;;-151.14;100.00;62537.16;4942021;29;19923;-83
2023/05/30 04:56:19;;;;;;;;;;;16.90;66.10;;;-151.14;100.00;62537.16;4941674;29;19929;-83
2023/05/30 04:58:51;;;;;;;;;;;17.00;66.40;;;-151.14;100.00;62537.16;4941281;29;19929;-83
2023/05/30 05:01:20;;;;;;;;;;;17.00;66.10;;;-151.14;100.00;62537.16;4942284;29;19923;-83
2023/05/30 05:03:49;;;;;;;;;;;17.00;66.40;;;-151.14;100.00;62537.16;4942338;29;19923;-82
2023/05/30 05:06:16;;;;;;;;;;;17.10;66.60;;;-151.14;100.00;62537.16;4958157;29;19929;-83
2023/05/30 05:08:46;;;;;;;;;;;17.10;66.30;;;-151.14;100.00;62537.16;4956421;29;19937;-83
2023/05/30 05:11:14;;;;;;;;;;;17.20;66.00;;;-151.14;100.00;62537.16;4941394;29;19922;-83
2023/05/30 05:13:42;;;;;;;;;;;17.20;65.90;;;-151.14;100.00;62537.16;4940920;29;19929;-83
2023/05/30 05:16:10;;;;;;;;;;;17.30;65.80;;;-151.14;100.00;62537.16;4941346;29;20222;-83
2023/05/30 05:18:38;;;;;;;;;;;17.30;65.00;;;-151.14;100.00;62537.16;4940289;29;20134;-83
2023/05/30 05:21:06;;;;;;;;;;;17.30;65.00;;;-151.14;100.00;62537.16;4958250;29;19923;-82
2023/05/30 05:23:34;;;;;;;;;;;17.30;64.80;;;-151.14;100.00;62537.16;4940976;29;19945;-82
2023/05/30 05:26:03;;;;;;;;;;;17.30;64.50;;;-151.14;100.00;62537.16;4941063;29;20211;-82
2023/05/30 05:28:31;;;;;;;;;;;17.30;64.80;;;-151.14;100.00;62537.16;4956292;29;19923;-83
2023/05/30 05:30:59;;;;;;;;;;;17.30;65.40;;;-151.14;100.00;62537.16;4940698;29;19922;-83
2023/05/30 05:33:27;;;;;;;;;;;17.20;65.50;;;-151.14;100.00;62537.16;4939285;29;19922;-82
2023/05/30 05:35:55;;;;;;;;;;;17.20;65.50;;;-151.14;100.00;62537.16;4954497;29;19929;-82
2023/05/30 05:38:23;;;;;;;;;;;17.20;65.60;;;-151.14;100.00;62537.16;4954244;29;19922;-82
2023/05/30 05:40:51;;;;;;;;;;;17.20;66.00;;;-151.14;100.00;62537.16;4955744;29;19929;-82
2023/05/30 05:43:21;;;;;;;;;;;17.20;66.00;;;-151.14;100.00;62537.16;4954282;29;19944;-82
2023/05/30 05:45:51;;;;;;;;;;;17.30;66.30;;;-151.14;100.00;62537.16;4954234;29;19923;-81
2023/05/30 05:48:19;;;;;;;;;;;17.30;66.30;;;-151.14;100.00;62537.16;4953890;29;19922;-82
2023/05/30 05:50:47;;;;;;;;;;;17.30;66.80;;;-151.14;100.00;62537.16;4953861;29;19922;-82
2023/05/30 05:53:15;;;;;;;;;;;17.30;66.70;;;-151.14;100.00;62537.16;4938394;29;19944;-82
2023/05/30 05:55:44;;;;;;;;;;;17.40;66.80;;;-151.14;100.00;62537.16;4954304;29;19922;-81
2023/05/30 05:58:12;;;;;;;;;;;17.40;66.70;;;-151.14;100.00;62537.16;4955501;29;19929;-82
2023/05/30 06:00:42;;;;;;;;;;;17.50;66.80;;;-151.14;100.00;62537.16;4937747;29;19923;-82
2023/05/30 06:03:09;;;;;;;;;;;17.50;66.60;;;-151.14;100.00;62537.16;4937951;29;19923;-82
2023/05/30 06:05:38;;;;;;;;;;;17.60;66.50;;;-151.14;100.00;62537.16;4938058;29;19922;-82
2023/05/30 06:08:06;;;;;;;;;;;17.70;66.50;;;-151.14;100.00;62537.16;4938042;29;19922;-82
2023/05/30 06:10:34;;;;;;;;;;;17.70;66.40;;;-151.14;100.00;62537.16;4953115;29;19922;-82
2023/05/30 06:13:02;;;;;;;;;;;17.80;66.30;;;-151.14;100.00;62537.16;4937956;29;19922;-82
2023/05/30 06:15:30;;;;;;;;;;;17.90;66.40;;;-151.14;100.00;62537.16;4969747;28;19923;-82
2023/05/30 06:17:59;;;;;;;;;;;17.90;66.30;;;-151.14;100.00;62537.16;4955424;29;19998;-82
2023/05/30 06:20:27;;;;;;;;;;;18.00;66.10;;;-151.14;100.00;62537.16;4937187;28;20094;-82
2023/05/30 06:22:55;;;;;;;;;;;18.00;66.10;;;-151.14;100.00;62537.16;4969816;28;19944;-82
2023/05/30 06:25:25;;;;;;;;;;;18.00;65.90;;;-151.14;100.00;62537.16;4969212;28;19922;-82
2023/05/30 06:27:53;;;;;;;;;;;18.10;66.00;;;-151.14;100.00;62537.16;4969710;28;19926;-82
2023/05/30 06:30:21;;;;;;;;;;;18.10;66.00;;;-151.14;100.00;62537.16;4953073;29;20120;-82
2023/05/30 06:32:49;;;;;;;;;;;18.10;66.00;;;-151.14;100.00;62537.16;4953867;29;19929;-82
2023/05/30 06:35:19;;;;;;;;;;;18.10;66.00;;;-151.14;100.00;62537.16;4953420;29;20146;-82
2023/05/30 06:37:47;;;;;;;;;;;18.10;66.00;;;-151.14;100.00;62537.16;4955228;29;19922;-82
2023/05/30 06:40:15;;;;;;;;;;;18.20;65.90;;;-151.14;100.00;62537.16;4953379;29;19922;-82
2023/05/30 06:42:43;;;;;;;;;;;18.20;65.90;;;-151.14;100.00;62537.16;4953843;29;20199;-81
2023/05/30 06:45:12;;;;;;;;;;;18.30;66.00;;;-151.14;100.00;62537.16;4953647;29;19922;-82
2023/05/30 06:47:40;;;;;;;;;;;18.30;66.00;;;-151.14;100.00;62537.16;4953613;29;19929;-82
2023/05/30 06:50:09;;;;;;;;;;;18.30;66.00;;;-151.14;100.00;62537.16;4953279;29;19923;-82
2023/05/30 06:52:39;;;;;;;;;;;18.30;65.90;;;-151.14;100.00;62537.16;4953746;29;19922;-81
2023/05/30 06:55:08;;;;;;;;;;;18.30;66.00;;;-151.14;100.00;62537.16;4937088;29;20214;-82
2023/05/30 06:57:37;;;;;;;;;;;18.40;65.90;;;-151.14;100.00;62537.16;4953408;29;19922;-82
2023/05/30 07:00:10;;;;;;;;;;;18.40;65.90;;;-151.14;100.00;62537.16;4936446;29;19945;-82
2023/05/30 07:02:38;;;;;;;;;;;18.40;66.70;;;-151.14;100.00;62537.16;4937217;29;19922;-82
2023/05/30 07:05:07;;;;;;;;;;;18.50;65.90;;;-151.14;100.00;62537.16;4936559;29;19929;-82
2023/05/30 07:07:35;;;;;;;;;;;18.50;65.70;;;-151.14;100.00;62537.16;4952247;29;19922;-83
2023/05/30 07:10:05;;;;;;;;;;;18.60;65.60;;;-151.14;100.00;62537.16;4951761;29;19923;-83
2023/05/30 07:12:33;;;;;;;;;;;18.60;65.60;;;-151.14;100.00;62537.16;4936205;29;19927;-83
2023/05/30 07:15:02;;;;;;;;;;;18.60;65.50;;;-151.14;100.00;62537.16;4936304;29;19929;-83
2023/05/30 07:17:30;;;;;;;;;;;18.60;65.40;;;-151.14;100.00;62537.16;4953147;29;19929;-83
2023/05/30 07:19:58;;;;;;;;;;;18.60;65.20;;;-151.14;100.00;62537.16;4935942;29;19922;-83
2023/05/30 07:22:26;;;;;;;;;;;18.70;65.30;;;-151.14;100.00;62537.16;4951956;29;19922;-83
2023/05/30 07:24:54;;;;;;;;;;;18.70;65.20;;;-151.14;100.00;62537.16;4952098;29;19929;-83
2023/05/30 07:27:23;;;;;;;;;;;18.70;65.00;;;-151.14;100.00;62537.16;4936157;29;19929;-83
2023/05/30 07:29:51;;;;;;;;;;;18.70;64.80;;;-151.14;100.00;62537.16;4952579;29;19923;-83
2023/05/30 07:32:20;;;;;;;;;;;18.70;64.80;;;-151.14;100.00;62537.16;4951936;29;19928;-83
2023/05/30 07:34:48;;;;;;;;;;;18.70;64.30;;;-151.14;100.00;62537.16;4935887;29;19922;-83
2023/05/30 07:37:16;;;;;;;;;;;18.80;64.30;;;-151.14;100.00;62537.16;4953966;29;19929;-83
2023/05/30 07:39:45;;;;;;;;;;;18.80;64.20;;;-151.14;100.00;62537.16;4955853;29;19931;-83
2023/05/30 07:42:13;;;;;;;;;;;18.80;63.70;;;-151.14;100.00;62537.16;4954976;29;20216;-83
2023/05/30 07:44:42;;;;;;;;;;;18.80;63.20;;;-151.14;100.00;62537.16;4956176;29;19929;-83
2023/05/30 07:47:10;;;;;;;;;;;18.80;63.00;;;-151.14;100.00;62537.16;4956103;29;19929;-83
2023/05/30 07:49:38;;;;;;;;;;;18.90;63.20;;;-151.14;100.00;62537.16;4938771;29;19929;-83
2023/05/30 07:52:06;;;;;;;;;;;18.90;62.30;;;-151.14;100.00;62537.16;4955076;29;19929;-83
2023/05/30 07:54:34;;;;;;;;;;;18.90;62.20;;;-151.14;100.00;62537.16;4954815;29;19922;-83
2023/05/30 07:57:03;;;;;;;;;;;18.90;62.60;;;-151.14;100.00;62537.16;4955143;29;20214;-83
2023/05/30 07:59:31;;;;;;;;;;;18.90;62.40;;;-151.14;100.00;62537.16;4938760;29;19922;-83
2023/05/30 08:02:00;;;;;;;;;;;18.90;61.80;;;-151.14;100.00;62537.16;4970868;28;19923;-83
2023/05/30 08:04:28;;;;;;;;;;;19.00;62.20;;;-151.14;100.00;62537.16;4955841;29;19922;-83
2023/05/30 08:06:56;;;;;;;;;;;19.00;61.70;;;-151.14;100.00;62537.16;4938735;29;20237;-83
2023/05/30 08:09:24;;;;;;;;;;;18.90;61.60;;;-151.14;100.00;62537.16;4954443;29;19928;-83
2023/05/30 08:11:52;;;;;;;;;;;18.90;60.70;;;-151.14;100.00;62537.16;4954634;29;19922;-83
2023/05/30 08:14:20;;;;;;;;;;;18.90;60.00;;;-151.14;100.00;62537.16;4954579;29;19941;-83
2023/05/30 08:16:48;;;;;;;;;;;19.00;60.50;;;-151.14;100.00;62537.16;4970695;28;19942;-83
2023/05/30 08:19:18;;;;;;;;;;;18.90;59.60;;;-151.14;100.00;62537.16;4954271;29;19929;-83
2023/05/30 08:21:46;;;;;;;;;;;19.00;59.80;;;-151.14;100.00;62537.16;4954411;29;20339;-83
2023/05/30 08:24:16;;;;;;;;;;;18.90;59.80;;;-151.14;100.00;62537.16;4954520;29;19922;-82
2023/05/30 08:26:48;;;;;;;;;;;18.90;60.30;;;-151.14;100.00;62537.16;4954472;29;19929;-83
2023/05/30 08:29:16;;;;;;;;;;;19.00;59.80;;;-151.14;100.00;62537.16;4953990;29;19922;-83
2023/05/30 08:31:44;;;;;;;;;;;18.90;59.60;;;-151.14;100.00;62537.16;4938319;29;19922;-84
2023/05/30 08:34:12;;;;;;;;;;;18.90;59.30;;;-151.14;100.00;62537.16;4954378;29;20099;-83
2023/05/30 08:36:41;;;;;;;;;;;19.00;58.30;;;-151.14;100.00;62537.16;4954251;29;19929;-83
2023/05/30 08:39:12;;;;;;;;;;;19.00;58.70;;;-151.14;100.00;62537.16;4953766;29;19923;-83
2023/05/30 08:41:40;;;;;;;;;;;18.90;59.50;;;-151.14;100.00;62537.16;4955172;28;19923;-83
2023/05/30 08:44:08;;;;;;;;;;;18.90;58.50;;;-151.14;100.00;62537.16;4955285;29;20122;-83
2023/05/30 08:46:36;;;;;;;;;;;18.90;59.10;;;-151.14;100.00;62537.16;4954172;29;19922;-84
2023/05/30 08:49:04;;;;;;;;;;;19.00;59.60;;;-151.14;100.00;62537.16;4952954;29;19929;-83
2023/05/30 08:51:32;;;;;;;;;;;18.90;58.80;;;-151.14;100.00;62537.16;4955059;29;19929;-83
2023/05/30 08:54:02;;;;;;;;;;;18.90;57.90;;;-151.14;100.00;62537.16;4954118;29;19922;-83
2023/05/30 08:56:32;;;;;;;;;;;18.90;60.30;;;-151.14;100.00;62537.16;4938012;29;19923;-83
2023/05/30 08:59:02;;;;;;;;;;;18.90;59.70;;;-151.14;100.00;62537.16;4953711;29;19929;-84
2023/05/30 09:01:30;;;;;;;;;;;18.90;59.30;;;-151.14;100.00;62537.16;4937862;29;19923;-83
2023/05/30 09:03:58;;;;;;;;;;;18.90;58.10;;;-151.14;100.00;62537.16;4953866;29;19928;-83
2023/05/30 09:06:27;;;;;;;;;;;18.90;59.80;;;-151.14;100.00;62537.16;4969854;28;19944;-83
2023/05/30 09:08:55;;;;;;;;;;;18.90;61.00;;;-151.14;100.00;62537.16;4953461;29;19923;-83
2023/05/30 09:11:25;;;;;;;;;;;18.90;61.30;;;-151.14;100.00;62537.16;4953696;29;19923;-84
2023/05/30 09:13:53;;;;;;;;;;;18.80;61.30;;;-151.14;100.00;62537.16;4953647;29;19922;-83
2023/05/30 09:16:21;;;;;;;;;;;18.80;61.30;;;-151.14;100.00;62537.16;4937777;29;19930;-83
2023/05/30 09:18:49;;;;;;;;;;;18.80;60.80;;;-151.14;100.00;62537.16;4954231;29;19922;-84
2023/05/30 09:21:17;;;;;;;;;;;18.70;61.10;;;-151.14;100.00;62537.16;4953555;29;19922;-83
2023/05/30 09:23:46;;;;;;;;;;;18.70;59.40;;;-151.14;100.00;62537.16;4969552;28;20192;-83
2023/05/30 09:26:15;;;;;;;;;;;18.70;60.00;;;-151.14;100.00;62537.16;4937780;29;20143;-83
2023/05/30 09:28:48;;;;;;;;;;;18.80;61.10;;;-151.14;100.00;62537.16;4937127;29;19929;-83
2023/05/30 09:31:16;;;;;;;;;;;18.70;60.80;;;-151.14;100.00;62537.16;4953459;29;19923;-83
2023/05/30 09:33:45;;;;;;;;;;;18.80;60.10;;;-151.14;100.00;62537.16;4953434;29;19926;-83
2023/05/30 09:36:18;;;;;;;;;;;18.80;60.00;;;-151.14;100.00;62537.16;4969419;28;19922;-83
2023/05/30 09:38:54;;;;;;;;;;;18.70;61.10;;;-151.14;100.00;62537.16;4952782;29;19929;-83
2023/05/30 09:41:22;;;;;;;;;;;18.80;61.60;;;-151.14;100.00;62537.16;4953237;29;19923;-83
2023/05/30 09:43:53;;;;;;;;;;;18.80;60.60;;;-151.14;100.00;62537.16;4969179;28;20138;-83
2023/05/30 09:46:25;;;;;;;;;;;18.80;60.40;;;-151.14;100.00;62537.16;4953371;29;19923;-83
2023/05/30 09:48:53;;;;;;;;;;;18.80;59.90;;;-151.14;100.00;62537.16;4968893;28;19922;-83
2023/05/30 09:51:21;;;;;;;;;;;18.80;60.10;;;-151.14;100.00;62537.16;4937183;29;19922;-83
2023/05/30 09:53:55;;;;;;;;;;;18.80;59.90;;;-151.14;100.00;62537.16;4969048;28;19929;-83
2023/05/30 09:56:36;;;;;;;;;;;18.80;59.50;;;-151.14;100.00;62537.16;4937124;29;20096;-83
2023/05/30 09:59:08;;;;;;;;;;;18.90;59.90;;;-151.14;100.00;62537.16;4936674;29;19922;-83
2023/05/30 10:01:40;;;;;;;;;;;18.90;60.40;;;-151.14;100.00;62537.16;4953052;29;19922;-81
2023/05/30 10:04:15;;;;;;;;;;;18.90;59.70;;;-151.14;100.00;62537.16;4954021;29;19922;-81
2023/05/30 10:06:44;;;;;;;;;;;18.90;60.10;;;-151.14;100.00;62537.16;4953008;29;19929;-81
2023/05/30 10:09:12;;;;;;;;;;;18.90;59.70;;;-151.14;100.00;62537.16;4952650;29;19929;-82
2023/05/30 10:11:41;;;;;;;;;;;18.80;59.90;;;-151.14;100.00;62537.16;4952790;29;19923;-82
2023/05/30 10:14:11;;;;;;;;;;;18.90;59.90;;;-151.14;100.00;62537.16;4952643;29;20331;-83
2023/05/30 10:16:46;;;;;;;;;;;18.80;59.80;;;-151.14;100.00;62537.16;4952850;29;20346;-82
2023/05/30 10:19:14;;;;;;;;;;;18.90;59.50;;;-151.14;100.00;62537.16;4952154;29;19922;-82
2023/05/30 10:21:42;;;;;;;;;;;18.90;59.60;;;-151.14;100.00;62537.16;4952467;29;19922;-82
2023/05/30 10:24:11;;;;;;;;;;;18.90;60.20;;;-151.14;100.00;62537.16;4952547;29;19922;-82
2023/05/30 10:26:40;;;;;;;;;;;18.90;61.60;;;-151.14;100.00;62537.16;4936817;29;20214;-83
2023/05/30 10:29:10;;;;;;;;;;;18.90;61.80;;;-151.14;100.00;62537.16;4953312;29;19927;-83
2023/05/30 10:31:38;;;;;;;;;;;18.90;60.90;;;-151.14;100.00;62537.16;4936691;29;19922;-82
2023/05/30 10:34:06;;;;;;;;;;;18.80;61.90;;;-151.14;100.00;62537.16;4952528;29;19945;-82
2023/05/30 10:36:35;;;;;;;;;;;18.80;60.80;;;-151.14;100.00;62537.16;4936639;29;19922;-82
2023/05/30 10:39:09;;;;;;;;;;;18.80;61.30;;;-151.14;100.00;62537.16;4936222;29;19922;-83
2023/05/30 10:41:38;;;;;;;;;;;18.80;61.30;;;-151.14;100.00;62537.16;4952321;29;19929;-82
2023/05/30 10:44:12;;;;;;;;;;;18.80;60.70;;;-151.14;100.00;62537.16;4936489;29;19945;-83
2023/05/30 10:46:44;;;;;;;;;;;18.80;61.30;;;-151.14;100.00;62537.16;4936608;29;20103;-82
2023/05/30 10:49:14;;;;;;;;;;;18.80;61.00;;;-151.14;100.00;62537.16;4936000;29;19923;-82
2023/05/30 10:52:01;;;;;;;;;;;18.80;62.40;;;-151.14;100.00;62537.16;4953286;29;19922;-83
2023/05/30 10:54:30;;;;;;;;;;;18.80;62.10;;;-151.14;100.00;62537.16;4952332;29;20118;-82
2023/05/30 10:57:00;;;;;;;;;;;18.80;62.10;;;-151.14;100.00;62537.16;4953760;29;19922;-82
2023/05/30 10:59:29;;;;;;;;;;;18.70;61.90;;;-151.14;100.00;62537.16;4951845;29;20248;-83
2023/05/30 11:02:01;;;;;;;;;;;18.80;62.30;;;-151.14;100.00;62537.16;4952169;29;19929;-83
2023/05/30 11:04:38;;;;;;;;;;;18.70;60.90;;;-151.14;100.00;62537.16;4951975;29;19923;-83